Time;durP1;ratioP1;P1;durP2;ratioP2;P2;SDS_P1;SDS_P2;PMS_P1;PMS_P2;Temp;Humidity;BMP_temperature;BMP_pressure;BME280_temperature;BME280_humidity;BME280_pressure;Samples;Min_cycle;Max_cycle;Signal;HPM_P1;HPM_P2
2022/04/09 00:01:19;;;;;;;0.95;0.50;;;;;;;5.62;68.55;98377.59;4987578;28;20095;-84
2022/04/09 00:03:46;;;;;;;0.50;0.50;;;;;;;5.64;68.65;98386.16;5013304;28;20436;-84
2022/04/09 00:06:13;;;;;;;1.85;0.82;;;;;;;5.66;68.57;98394.75;4984830;28;21607;-84
2022/04/09 00:08:39;;;;;;;0.50;0.50;;;;;;;5.67;68.27;98403.50;5034563;28;20048;-84
2022/04/09 00:11:09;;;;;;;2.28;0.75;;;;;;;5.62;68.33;98403.06;5034817;28;20048;-84
2022/04/09 00:13:36;;;;;;;2.20;0.57;;;;;;;5.67;68.46;98406.13;5047128;28;20041;-84
2022/04/09 00:16:03;;;;;;;1.15;0.90;;;;;;;5.65;68.28;98413.34;5007881;28;20045;-84
2022/04/09 00:18:30;;;;;;;0.65;0.63;;;;;;;5.65;68.81;98416.81;5043863;28;20046;-84
2022/04/09 00:20:57;;;;;;;1.35;0.85;;;;;;;5.68;68.30;98430.69;5029616;28;20045;-84
2022/04/09 00:23:23;;;;;;;1.17;0.85;;;;;;;5.66;68.23;98431.63;5044745;28;20515;-84
2022/04/09 00:25:50;;;;;;;0.73;0.60;;;;;;;5.67;68.41;98440.34;5028642;28;20121;-84
2022/04/09 00:28:17;;;;;;;1.63;0.85;;;;;;;5.65;68.27;98437.88;5012967;28;20121;-83
2022/04/09 00:30:44;;;;;;;1.70;0.90;;;;;;;5.66;68.49;98449.25;5059903;28;20055;-84
2022/04/09 00:33:11;;;;;;;1.67;1.13;;;;;;;5.63;68.33;98457.41;5046372;28;20045;-84
2022/04/09 00:35:38;;;;;;;2.17;1.38;;;;;;;5.56;68.59;98456.31;5022128;28;20408;-84
2022/04/09 00:38:04;;;;;;;0.80;0.80;;;;;;;5.55;68.38;98458.09;5041238;28;20524;-84
2022/04/09 00:40:31;;;;;;;1.15;0.90;;;;;;;5.61;68.06;98469.88;5024731;28;20050;-83
2022/04/09 00:42:58;;;;;;;3.95;1.50;;;;;;;5.55;68.35;98473.91;5025634;28;20053;-84
2022/04/09 00:45:25;;;;;;;2.58;1.30;;;;;;;5.56;68.51;98493.16;5020247;28;20052;-84
2022/04/09 00:47:52;;;;;;;2.25;1.40;;;;;;;5.44;68.36;98501.19;5033050;28;21162;-84
2022/04/09 00:50:19;;;;;;;3.50;1.25;;;;;;;5.32;68.69;98514.63;5014812;28;20054;-84
2022/04/09 00:52:50;;;;;;;1.48;1.20;;;;;;;5.25;69.03;98530.09;5025967;28;20048;-84
2022/04/09 00:55:19;;;;;;;2.65;1.67;;;;;;;5.15;69.22;98550.28;5001498;28;20042;-84
2022/04/09 00:57:48;;;;;;;2.03;1.60;;;;;;;5.20;68.91;98558.63;5003503;28;20045;-84
2022/04/09 01:00:16;;;;;;;2.55;1.80;;;;;;;5.25;68.98;98559.06;5007856;28;20504;-84
2022/04/09 01:02:44;;;;;;;4.05;2.00;;;;;;;5.26;69.06;98580.94;4989711;28;20053;-84
2022/04/09 01:05:12;;;;;;;2.80;1.88;;;;;;;5.31;68.88;98597.16;5024101;28;20047;-84
2022/04/09 01:07:39;;;;;;;4.00;2.35;;;;;;;5.34;68.86;98607.41;5042134;28;20049;-84
2022/04/09 01:10:10;;;;;;;5.43;1.92;;;;;;;5.40;68.51;98618.25;5011887;28;20115;-84
2022/04/09 01:12:37;;;;;;;3.92;2.00;;;;;;;5.45;68.53;98631.03;5009680;28;20042;-84
2022/04/09 01:15:08;;;;;;;2.78;1.98;;;;;;;5.48;68.41;98635.19;5017871;28;20054;-83
2022/04/09 01:17:36;;;;;;;2.58;1.70;;;;;;;5.52;68.70;98652.38;5010397;28;20557;-84
2022/04/09 01:20:19;;;;;;;2.72;2.38;;;;;;;5.48;68.91;98661.53;5028909;28;20055;-83
2022/04/09 01:22:48;;;;;;;3.90;2.25;;;;;;;5.55;68.69;98671.41;4968506;28;20045;-83
2022/04/09 01:25:17;;;;;;;3.83;2.15;;;;;;;5.56;68.97;98677.47;5022029;28;20042;-82
2022/04/09 01:27:48;;;;;;;2.35;1.85;;;;;;;5.59;68.80;98687.75;5008532;28;20041;-83
2022/04/09 01:30:16;;;;;;;6.60;2.40;;;;;;;5.59;68.67;98704.38;5005554;28;20069;-83
2022/04/09 01:32:44;;;;;;;2.65;2.17;;;;;;;5.59;68.90;98704.38;5025357;28;20045;-83
2022/04/09 01:35:11;;;;;;;4.68;2.80;;;;;;;5.60;68.62;98721.03;5005380;28;20099;-83
2022/04/09 01:37:37;;;;;;;5.95;3.05;;;;;;;5.61;68.71;98727.97;5008191;28;20069;-83
2022/04/09 01:40:06;;;;;;;6.60;4.00;;;;;;;5.60;68.79;98724.50;4985467;28;20128;-83
2022/04/09 01:42:33;;;;;;;12.75;6.75;;;;;;;5.60;68.47;98731.56;5042971;28;20049;-83
2022/04/09 01:45:00;;;;;;;17.50;7.22;;;;;;;5.59;68.33;98735.97;5010858;28;20054;-83
2022/04/09 01:47:28;;;;;;;19.23;9.15;;;;;;;5.60;68.34;98739.47;5033737;28;20554;-83
2022/04/09 01:49:55;;;;;;;21.15;10.75;;;;;;;5.60;68.75;98752.63;5020751;28;20456;-86
2022/04/09 01:52:22;;;;;;;21.92;9.23;;;;;;;5.55;68.43;98749.56;4976935;28;20045;-86
2022/04/09 01:54:49;;;;;;;23.38;10.00;;;;;;;5.52;68.16;98755.91;5053036;28;20118;-87
2022/04/09 01:57:16;;;;;;;21.73;9.63;;;;;;;5.48;68.15;98753.66;5041807;28;20562;-87
2022/04/09 01:59:44;;;;;;;20.95;8.77;;;;;;;5.48;68.29;98765.03;5027932;28;20053;-86
2022/04/09 02:02:12;;;;;;;26.40;10.10;;;;;;;5.46;68.45;98780.13;5010932;28;20045;-86
2022/04/09 02:04:39;;;;;;;25.05;11.02;;;;;;;5.44;68.53;98784.66;5016181;28;20049;-86
2022/04/09 02:07:06;;;;;;;20.42;9.07;;;;;;;5.44;68.83;98801.31;5007829;28;20037;-86
2022/04/09 02:09:33;;;;;;;20.38;9.45;;;;;;;5.47;68.78;98794.13;5032759;28;20136;-87
2022/04/09 02:12:00;;;;;;;27.65;10.50;;;;;;;5.40;68.82;98807.81;5015324;28;20041;-87
2022/04/09 02:14:26;;;;;;;26.25;10.15;;;;;;;5.39;68.61;98815.81;5030721;28;20041;-87
2022/04/09 02:16:53;;;;;;;24.75;9.82;;;;;;;5.40;68.61;98822.78;4986575;28;20160;-87
2022/04/09 02:19:20;;;;;;;23.60;10.07;;;;;;;5.40;68.55;98833.31;5037612;28;20041;-86
2022/04/09 02:21:47;;;;;;;21.98;9.30;;;;;;;5.39;68.63;98831.59;5012421;28;20400;-87
2022/04/09 02:27:56;;;;;;;31.10;11.50;;;;;;;5.37;68.90;98862.53;4965237;28;20041;-88
2022/04/09 02:30:25;;;;;;;31.85;11.45;;;;;;;5.37;68.46;98865.97;5046718;28;20045;-88
2022/04/09 02:32:57;;;;;;;32.45;12.77;;;;;;;5.39;68.82;98871.97;5043827;28;20125;-87
2022/04/09 02:35:28;;;;;;;29.52;11.32;;;;;;;5.39;68.74;98882.50;4988433;28;20046;-88
2022/04/09 02:37:57;;;;;;;29.38;11.90;;;;;;;5.39;69.01;98886.91;5017486;28;20057;-88
2022/04/09 02:40:27;;;;;;;29.38;11.63;;;;;;;5.38;69.08;98886.06;5030290;28;20096;-88
2022/04/09 02:42:54;;;;;;;33.00;12.93;;;;;;;5.37;69.03;98897.56;4997982;28;20041;-88
2022/04/09 02:45:21;;;;;;;35.00;13.75;;;;;;;5.39;68.96;98911.44;5043846;28;20060;-86
2022/04/09 02:47:48;;;;;;;35.20;13.80;;;;;;;5.38;68.58;98915.03;5009091;28;20049;-88
2022/04/09 02:50:19;;;;;;;27.33;10.93;;;;;;;5.37;68.65;98923.91;5040474;28;20136;-87
2022/04/09 02:52:48;;;;;;;37.95;13.43;;;;;;;5.38;68.65;98935.25;4981000;28;20045;-88
2022/04/09 02:55:16;;;;;;;34.08;13.10;;;;;;;5.37;68.76;98944.13;5000093;28;20049;-88
2022/04/09 02:57:43;;;;;;;34.38;13.05;;;;;;;5.37;68.76;98958.13;5043367;28;20049;-89
2022/04/09 03:00:13;;;;;;;29.52;11.40;;;;;;;5.37;68.44;98963.38;5026868;28;20052;-87
2022/04/09 03:02:42;;;;;;;27.38;11.32;;;;;;;5.38;68.59;98964.22;5025280;28;20048;-87
2022/04/09 03:05:18;;;;;;;23.33;10.38;;;;;;;5.38;68.83;98980.00;4970579;28;20047;-88
2022/04/09 03:07:45;;;;;;;18.63;9.05;;;;;;;5.38;68.61;98991.38;5017028;28;20212;-87
2022/04/09 03:10:12;;;;;;;21.38;9.80;;;;;;;5.37;68.37;98997.59;5003893;28;20504;-87
2022/04/09 03:12:44;;;;;;;20.63;9.68;;;;;;;5.37;68.63;99002.03;5008305;28;20038;-88
2022/04/09 03:15:11;;;;;;;20.27;9.55;;;;;;;5.37;68.41;99005.50;5014068;28;20042;-86
2022/04/09 03:17:38;;;;;;;20.23;9.15;;;;;;;5.37;68.58;99013.41;5019792;28;20052;-88
2022/04/09 03:20:06;;;;;;;20.52;8.55;;;;;;;5.39;68.24;99019.38;5009750;28;20507;-87
2022/04/09 03:22:34;;;;;;;18.67;8.70;;;;;;;5.38;68.13;99022.13;4978665;28;20042;-88
2022/04/09 03:25:03;;;;;;;16.23;8.52;;;;;;;5.40;68.49;99030.75;5034400;28;20076;-88
2022/04/09 03:27:30;;;;;;;20.40;8.65;;;;;;;5.39;68.25;99042.22;5030246;28;20041;-87
2022/04/09 03:29:59;;;;;;;16.35;8.35;;;;;;;5.36;68.48;99040.66;5032681;28;20049;-87
2022/04/09 03:32:29;;;;;;;16.33;7.55;;;;;;;5.36;68.14;99055.63;5026711;28;20046;-87
2022/04/09 03:34:57;;;;;;;18.40;8.77;;;;;;;5.36;68.51;99059.09;5001180;28;20041;-88
2022/04/09 03:37:26;;;;;;;17.73;8.20;;;;;;;5.36;68.21;99061.72;5036515;28;20055;-88
2022/04/09 03:39:54;;;;;;;18.95;9.65;;;;;;;5.34;68.48;99070.72;5024383;28;20096;-87
2022/04/09 03:42:21;;;;;;;17.75;8.38;;;;;;;5.37;68.16;99076.59;5017768;28;20049;-88
2022/04/09 03:49:18;;;;;;;17.10;9.27;;;;;;;5.25;68.50;99089.88;4982203;28;20049;-89
2022/04/09 03:51:46;;;;;;;17.45;8.30;;;;;;;5.27;68.59;99096.69;5036469;28;20440;-88
2022/04/09 03:54:17;;;;;;;21.05;8.93;;;;;;;5.27;68.94;99099.34;5014203;28;20045;-88
2022/04/09 04:01:16;;;;;;;16.33;7.63;;;;;;;5.22;68.66;99106.75;5003406;28;20558;-87
2022/04/09 04:03:47;;;;;;;13.60;7.55;;;;;;;5.24;68.45;99115.38;5046736;28;20044;-88
2022/04/09 04:06:14;;;;;;;17.77;8.30;;;;;;;5.24;68.67;99120.63;5013155;28;20076;-87
2022/04/09 04:08:41;;;;;;;19.05;9.32;;;;;;;5.25;68.75;99130.19;5014162;28;20045;-87
2022/04/09 04:11:13;;;;;;;21.25;10.30;;;;;;;5.23;68.95;99140.00;5036787;28;20057;-87
2022/04/09 04:14:30;;;;;;;24.70;9.77;;;;;;;5.14;68.78;99141.56;5038713;28;20160;-88
2022/04/09 04:16:59;;;;;;;23.98;9.98;;;;;;;5.18;68.83;99139.50;4965969;28;20054;-87
2022/04/09 04:19:28;;;;;;;23.15;10.60;;;;;;;5.18;68.63;99147.41;5047805;28;20045;-87
2022/04/09 04:21:55;;;;;;;24.48;9.77;;;;;;;5.19;68.62;99151.72;5027552;28;20040;-88
2022/04/09 04:24:52;;;;;;;19.23;8.80;;;;;;;5.09;68.78;99159.50;4988469;28;20045;-87
2022/04/09 04:27:20;;;;;;;23.27;10.38;;;;;;;5.16;68.87;99165.94;4995171;28;20076;-87
2022/04/09 04:29:46;;;;;;;23.00;10.18;;;;;;;5.15;68.82;99173.97;4994432;28;20048;-87
2022/04/09 04:32:13;;;;;;;21.10;9.75;;;;;;;5.14;69.03;99178.41;5013714;28;20049;-87
2022/04/09 04:34:40;;;;;;;20.13;9.32;;;;;;;5.12;69.09;99182.94;4999947;28;20045;-87
2022/04/09 04:37:07;;;;;;;22.58;8.77;;;;;;;5.11;68.92;99188.31;5013019;28;20132;-87
2022/04/09 04:39:34;;;;;;;26.00;11.13;;;;;;;5.11;69.03;99209.34;5001445;28;20402;-88
2022/04/09 04:42:01;;;;;;;22.98;10.68;;;;;;;5.09;69.12;99208.63;5035769;28;20436;-87
2022/04/09 04:44:28;;;;;;;28.83;11.70;;;;;;;5.07;69.07;99208.75;5044812;28;20488;-87
2022/04/09 04:46:58;;;;;;;27.02;11.23;;;;;;;5.06;69.05;99206.25;5022011;28;20128;-87
2022/04/09 04:49:26;;;;;;;27.50;12.00;;;;;;;5.04;68.80;99222.16;5042608;28;20048;-88
2022/04/09 04:52:00;;;;;;;31.75;12.50;;;;;;;5.03;68.93;99220.47;5034676;28;20052;-87
2022/04/09 04:54:29;;;;;;;27.67;13.18;;;;;;;5.03;69.19;99227.53;4994289;28;20045;-87
2022/04/09 04:56:57;;;;;;;27.88;13.73;;;;;;;5.02;68.90;99237.22;5013159;28;20095;-88
2022/04/09 04:59:23;;;;;;;30.38;13.55;;;;;;;5.03;68.82;99238.88;5012906;28;20049;-88
2022/04/09 05:06:35;;;;;;;30.15;12.18;;;;;;;4.98;69.26;99248.91;5012707;28;20134;-88
2022/04/09 05:09:04;;;;;;;28.25;11.52;;;;;;;4.99;68.95;99256.72;5011445;28;20073;-88
2022/04/09 05:11:48;;;;;;;25.05;11.10;;;;;;;5.00;68.84;99263.63;4980452;28;20124;-87
2022/04/09 05:14:21;;;;;;;28.77;12.90;;;;;;;5.00;68.94;99265.44;5005385;28;20136;-84
2022/04/09 05:16:52;;;;;;;36.58;13.98;;;;;;;5.02;68.82;99270.59;5045963;28;20111;-84
2022/04/09 05:19:19;;;;;;;25.45;11.73;;;;;;;5.03;69.22;99282.78;5017463;28;20463;-84
2022/04/09 05:21:53;;;;;;;37.17;15.02;;;;;;;5.01;69.02;99280.25;4995586;28;20128;-84
2022/04/09 05:24:22;;;;;;;32.42;13.23;;;;;;;5.02;69.32;99281.94;5016633;28;20573;-84
2022/04/09 05:26:49;;;;;;;34.55;14.15;;;;;;;5.04;69.34;99287.94;5012426;28;20046;-84
2022/04/09 05:29:17;;;;;;;31.48;13.38;;;;;;;5.04;69.38;99294.97;5018709;28;20484;-84
2022/04/09 05:31:46;;;;;;;25.40;11.50;;;;;;;5.04;69.35;99303.72;5008446;28;20488;-84
2022/04/09 05:34:16;;;;;;;31.85;15.00;;;;;;;5.04;69.13;99303.72;5006197;28;20099;-84
2022/04/09 05:36:45;;;;;;;27.23;11.73;;;;;;;5.05;69.21;99307.19;5013014;28;20050;-84
2022/04/09 05:39:13;;;;;;;34.58;13.35;;;;;;;5.03;69.20;99312.56;5018399;28;20053;-84
2022/04/09 05:41:41;;;;;;;38.42;15.02;;;;;;;5.04;69.19;99323.91;5025748;28;20398;-84
2022/04/09 05:44:09;;;;;;;37.65;16.42;;;;;;;5.05;69.56;99339.59;5002403;28;20045;-84
2022/04/09 05:46:36;;;;;;;46.10;19.10;;;;;;;5.05;69.42;99344.88;4997087;28;20045;-84
2022/04/09 05:49:07;;;;;;;58.15;19.73;;;;;;;5.07;69.74;99357.94;5010143;28;20060;-84
2022/04/09 05:51:36;;;;;;;54.53;19.77;;;;;;;5.05;69.94;99357.19;5017705;28;20468;-84
2022/04/09 05:54:04;;;;;;;50.67;19.42;;;;;;;5.05;69.63;99360.66;5004508;28;20055;-84
2022/04/09 05:56:36;;;;;;;51.83;22.65;;;;;;;5.07;69.82;99366.66;4980384;28;20050;-84
2022/04/09 05:59:03;;;;;;;33.20;14.82;;;;;;;5.07;69.65;99369.28;5007228;28;20409;-84
2022/04/09 06:01:48;;;;;;;30.42;13.43;;;;;;;5.09;69.34;99375.28;5018510;28;20050;-84
2022/04/09 06:04:19;;;;;;;25.58;11.68;;;;;;;5.08;69.39;99378.03;5032230;28;20076;-84
2022/04/09 06:06:48;;;;;;;27.88;11.15;;;;;;;5.08;69.46;99378.03;4994926;28;20231;-84
2022/04/09 06:09:17;;;;;;;29.77;11.88;;;;;;;5.08;69.29;99384.13;4988339;28;21628;-84
2022/04/09 06:11:51;;;;;;;29.15;12.77;;;;;;;5.10;69.43;99389.28;4998261;28;20037;-85
2022/04/09 06:14:23;;;;;;;28.30;12.98;;;;;;;5.10;69.56;99397.16;5015259;28;20056;-84
2022/04/09 06:16:50;;;;;;;29.70;13.27;;;;;;;5.09;69.65;99401.59;5042053;28;20091;-84
2022/04/09 06:19:17;;;;;;;27.65;11.15;;;;;;;5.10;69.67;99402.44;5008220;28;20456;-84
2022/04/09 06:21:45;;;;;;;28.65;11.73;;;;;;;5.10;69.37;99399.81;5004360;28;20124;-83
2022/04/09 06:24:15;;;;;;;37.08;13.93;;;;;;;5.11;69.35;99401.47;4988036;28;20400;-83
2022/04/09 06:26:43;;;;;;;29.52;13.32;;;;;;;5.11;69.16;99402.31;5027869;28;20404;-84
2022/04/09 06:29:11;;;;;;;34.63;15.18;;;;;;;5.15;69.35;99408.22;4996692;28;20110;-84
2022/04/09 06:31:41;;;;;;;31.88;13.55;;;;;;;5.17;69.17;99411.56;5024367;28;20053;-83
2022/04/09 06:34:08;;;;;;;35.90;15.77;;;;;;;5.16;69.58;99415.13;5032435;28;20053;-83
2022/04/09 06:36:37;;;;;;;35.63;14.48;;;;;;;5.16;69.52;99401.97;5025367;28;20041;-84
2022/04/09 06:39:05;;;;;;;35.88;15.23;;;;;;;5.16;69.43;99410.72;5022169;28;20033;-82
2022/04/09 06:41:36;;;;;;;42.65;16.50;;;;;;;5.17;69.29;99419.47;5007797;28;20095;-82
2022/04/09 06:44:07;;;;;;;39.40;16.08;;;;;;;5.19;69.78;99426.31;5026833;28;20132;-82
2022/04/09 06:46:45;;;;;;;36.83;15.00;;;;;;;5.22;69.21;99430.50;5007202;28;20128;-82
2022/04/09 06:49:33;;;;;;;40.35;16.38;;;;;;;5.23;69.46;99442.69;5028818;28;20529;-82
2022/04/09 06:52:10;;;;;;;40.10;16.35;;;;;;;5.22;69.42;99444.50;5033805;28;20045;-83
2022/04/09 06:54:55;;;;;;;35.00;16.05;;;;;;;5.19;69.55;99446.50;5002472;28;20042;-82
2022/04/09 06:57:22;;;;;;;38.67;15.43;;;;;;;5.19;69.39;99457.03;4996562;28;20069;-82
2022/04/09 06:59:49;;;;;;;30.90;15.25;;;;;;;5.20;69.55;99461.34;5011575;28;20094;-82
2022/04/09 07:02:17;;;;;;;40.00;16.63;;;;;;;5.24;70.05;99460.19;5011973;28;20069;-82
2022/04/09 07:04:45;;;;;;;40.78;15.82;;;;;;;5.29;69.80;99465.09;5033255;28;20048;-82
2022/04/09 07:07:12;;;;;;;36.63;15.00;;;;;;;5.29;70.20;99459.84;5018509;28;20127;-82
2022/04/09 07:09:39;;;;;;;35.88;14.70;;;;;;;5.30;69.87;99459.72;5036252;28;20052;-82
2022/04/09 07:12:07;;;;;;;33.47;13.18;;;;;;;5.29;69.61;99467.72;5021756;28;20057;-82
2022/04/09 07:14:33;;;;;;;34.70;15.25;;;;;;;5.29;69.63;99471.22;5006917;28;20492;-82
2022/04/09 07:17:03;;;;;;;32.72;14.10;;;;;;;5.29;69.96;99470.38;5009987;28;20053;-82
2022/04/09 07:19:30;;;;;;;33.40;15.57;;;;;;;5.31;70.10;99479.00;4997770;28;20100;-81
2022/04/09 07:21:58;;;;;;;29.65;13.63;;;;;;;5.30;69.80;99478.16;5009123;28;20061;-82
2022/04/09 07:24:25;;;;;;;29.30;12.82;;;;;;;5.28;69.69;99480.06;5013600;28;20072;-82
2022/04/09 07:26:52;;;;;;;34.80;14.30;;;;;;;5.29;70.04;99487.03;5015399;28;20053;-82
2022/04/09 07:29:18;;;;;;;34.70;14.43;;;;;;;5.32;70.10;99489.44;5005357;28;20412;-83
2022/04/09 07:31:46;;;;;;;31.58;14.30;;;;;;;5.36;70.24;99496.13;5046695;28;20048;-81
2022/04/09 07:34:12;;;;;;;41.20;16.88;;;;;;;5.33;70.69;99496.38;5009541;28;20053;-80
2022/04/09 07:36:39;;;;;;;37.92;16.58;;;;;;;5.35;70.28;99496.28;4996441;28;20130;-81
2022/04/09 07:39:06;;;;;;;34.30;15.38;;;;;;;5.32;70.41;99494.69;5002907;28;20041;-82
2022/04/09 07:41:33;;;;;;;32.15;14.25;;;;;;;5.34;70.26;99499.84;5024830;28;20052;-86
2022/04/09 07:44:00;;;;;;;34.45;15.50;;;;;;;5.35;70.09;99507.63;5035640;28;20068;-84
2022/04/09 07:46:27;;;;;;;44.88;16.45;;;;;;;5.39;70.51;99501.22;5018005;28;20086;-84
2022/04/09 07:48:58;;;;;;;35.70;14.82;;;;;;;5.39;70.50;99489.81;4990759;28;20045;-82
2022/04/09 07:51:25;;;;;;;34.17;14.32;;;;;;;5.44;70.51;99506.97;5020519;28;20045;-81
2022/04/09 07:53:51;;;;;;;43.33;16.75;;;;;;;5.49;70.99;99505.78;5003783;28;20129;-82
2022/04/09 07:56:18;;;;;;;35.20;13.95;;;;;;;5.48;71.38;99504.94;5026010;28;20115;-81
2022/04/09 07:58:45;;;;;;;41.85;15.90;;;;;;;5.52;71.36;99518.72;5031535;28;20045;-80
2022/04/09 08:01:12;;;;;;;37.90;14.82;;;;;;;5.52;71.36;99526.63;5022816;28;20053;-84
2022/04/09 08:03:40;;;;;;;37.08;15.25;;;;;;;5.55;71.21;99534.31;5017431;28;20408;-85
2022/04/09 08:06:06;;;;;;;32.10;14.55;;;;;;;5.55;71.29;99534.31;5027253;28;20051;-85
2022/04/09 08:08:33;;;;;;;39.33;16.23;;;;;;;5.56;72.03;99542.09;4998179;28;20752;-83
2022/04/09 08:11:01;;;;;;;35.03;15.35;;;;;;;5.51;71.67;99538.97;5026832;28;20045;-85
2022/04/09 08:13:28;;;;;;;44.88;15.27;;;;;;;5.54;71.94;99538.72;5025041;28;20048;-85
2022/04/09 08:15:55;;;;;;;52.65;16.75;;;;;;;5.53;72.20;99539.69;5026104;28;20449;-84
2022/04/09 08:18:22;;;;;;;31.58;14.32;;;;;;;5.55;72.04;99544.88;5034847;28;20162;-84
2022/04/09 08:21:04;;;;;;;37.92;15.27;;;;;;;5.55;71.97;99544.88;5027197;28;20492;-83
2022/04/09 08:23:31;;;;;;;37.58;14.50;;;;;;;5.57;71.81;99551.69;5036651;28;20122;-84
2022/04/09 08:25:58;;;;;;;35.30;14.75;;;;;;;5.58;71.73;99552.53;5059936;28;20045;-83
2022/04/09 08:28:27;;;;;;;35.22;13.82;;;;;;;5.61;71.63;99552.31;5010521;28;20040;-83
2022/04/09 08:30:53;;;;;;;31.58;13.00;;;;;;;5.63;71.74;99555.69;5028535;28;20045;-83
2022/04/09 08:33:20;;;;;;;35.33;13.90;;;;;;;5.63;71.92;99550.41;5031112;28;20143;-83
2022/04/09 08:35:47;;;;;;;34.80;13.45;;;;;;;5.68;72.14;99553.56;5026231;28;20053;-84
2022/04/09 08:38:14;;;;;;;34.03;13.27;;;;;;;5.66;72.26;99552.81;5027420;28;20493;-83
2022/04/09 08:40:42;;;;;;;35.22;14.52;;;;;;;5.72;72.81;99560.25;5009309;28;20049;-84
2022/04/09 08:43:09;;;;;;;41.92;16.55;;;;;;;6.10;72.41;99572.44;5026043;28;20037;-84
2022/04/09 08:45:39;;;;;;;40.00;14.77;;;;;;;5.77;72.46;99567.84;5032073;28;20049;-84
2022/04/09 08:48:08;;;;;;;31.48;14.13;;;;;;;5.78;72.58;99566.91;5017940;28;20053;-84
2022/04/09 08:50:35;;;;;;;37.55;14.20;;;;;;;5.71;73.79;99570.94;5034090;28;20102;-84
2022/04/09 08:53:07;;;;;;;36.85;13.75;;;;;;;5.70;74.01;99583.25;5031067;28;20141;-84
2022/04/09 08:55:35;;;;;;;32.22;12.85;;;;;;;5.77;72.73;99573.94;5022596;28;20042;-84
2022/04/09 08:58:03;;;;;;;31.70;12.48;;;;;;;5.77;72.88;99575.75;5024512;28;20484;-84
2022/04/09 09:00:30;;;;;;;37.92;12.90;;;;;;;5.72;73.09;99570.78;5023892;28;20045;-84
2022/04/09 09:02:59;;;;;;;23.48;11.68;;;;;;;5.68;72.27;99573.78;5025376;28;20499;-84
2022/04/09 09:05:31;;;;;;;32.35;12.30;;;;;;;5.71;72.21;99577.03;4991319;28;20119;-83
2022/04/09 09:07:58;;;;;;;38.13;12.30;;;;;;;5.71;72.68;99584.09;5028694;28;20041;-83
2022/04/09 09:10:25;;;;;;;33.25;12.48;;;;;;;5.87;71.87;99582.84;4995225;28;20095;-84
2022/04/09 09:13:08;;;;;;;32.97;12.55;;;;;;;5.79;72.88;99579.09;5027172;28;20073;-83
2022/04/09 09:15:46;;;;;;;32.15;12.27;;;;;;;5.80;73.07;99592.19;5006511;28;20445;-83
2022/04/09 09:18:23;;;;;;;30.55;11.55;;;;;;;5.77;72.08;99597.66;5005435;28;20057;-83
2022/04/09 09:21:00;;;;;;;33.15;12.68;;;;;;;5.75;72.55;99594.31;5018381;28;20045;-84
2022/04/09 09:23:31;;;;;;;40.35;12.57;;;;;;;5.80;72.53;99593.94;5019744;28;20045;-83
2022/04/09 09:26:00;;;;;;;26.23;11.35;;;;;;;5.80;72.45;99599.22;4993261;28;20049;-80
2022/04/09 09:28:28;;;;;;;37.50;12.40;;;;;;;5.81;72.46;99606.19;5011503;28;20040;-81
2022/04/09 09:30:55;;;;;;;30.13;10.88;;;;;;;5.91;72.25;99601.09;5030189;28;20053;-82
2022/04/09 09:33:22;;;;;;;30.05;12.35;;;;;;;6.04;71.54;99604.53;5006300;28;20049;-81
2022/04/09 09:36:09;;;;;;;30.92;11.77;;;;;;;5.95;71.83;99618.38;5021621;28;20521;-81
2022/04/09 09:38:36;;;;;;;32.72;10.23;;;;;;;5.92;71.28;99605.41;5023602;28;20670;-81
2022/04/09 09:41:03;;;;;;;28.80;11.13;;;;;;;5.92;71.74;99608.88;4992022;28;20069;-81
2022/04/09 09:43:31;;;;;;;18.90;8.75;;;;;;;5.91;72.28;99603.75;5020890;28;20050;-81
2022/04/09 09:45:59;;;;;;;28.80;10.25;;;;;;;5.97;72.04;99598.88;5021377;28;20049;-81
2022/04/09 09:48:26;;;;;;;24.63;9.88;;;;;;;5.97;71.81;99611.22;4992928;28;20045;-81
2022/04/09 09:50:54;;;;;;;28.88;9.90;;;;;;;6.08;71.19;99612.13;5017266;28;20042;-81
2022/04/09 09:53:29;;;;;;;21.08;8.73;;;;;;;6.01;71.23;99604.78;5026567;28;20374;-81
2022/04/09 09:55:59;;;;;;;21.38;9.13;;;;;;;6.08;71.90;99606.84;4990102;28;20615;-81
2022/04/09 09:58:30;;;;;;;26.42;8.48;;;;;;;6.10;71.81;99604.09;5019793;28;20084;-85
2022/04/09 10:01:15;;;;;;;24.77;9.30;;;;;;;6.15;71.21;99616.94;5013447;28;20075;-81
2022/04/09 10:03:42;;;;;;;23.35;8.13;;;;;;;6.17;71.31;99615.88;5033602;28;20169;-81
2022/04/09 10:06:09;;;;;;;26.60;9.55;;;;;;;6.18;71.34;99616.69;5027956;28;20127;-82
2022/04/09 10:08:37;;;;;;;25.02;9.52;;;;;;;6.20;69.76;99607.72;5028707;28;20131;-81
2022/04/09 10:11:03;;;;;;;29.80;8.02;;;;;;;6.30;70.67;99621.06;5031623;28;20049;-83
2022/04/09 10:13:32;;;;;;;21.67;7.28;;;;;;;6.32;68.78;99615.69;5011020;28;20049;-82
2022/04/09 10:15:59;;;;;;;19.45;6.47;;;;;;;6.27;68.70;99618.66;5026088;28;20140;-81
2022/04/09 10:18:25;;;;;;;19.45;6.35;;;;;;;6.44;68.16;99612.97;5037766;28;20386;-81
2022/04/09 10:20:55;;;;;;;20.40;7.20;;;;;;;6.28;67.54;99621.22;5041109;28;20045;-81
2022/04/09 10:23:22;;;;;;;26.42;9.98;;;;;;;6.36;67.83;99631.19;5023135;28;22128;-82
2022/04/09 10:25:51;;;;;;;22.17;6.88;;;;;;;6.35;66.68;99621.56;5039703;28;20042;-81
2022/04/09 10:28:32;;;;;;;23.50;6.07;;;;;;;6.32;66.58;99640.25;5008549;28;20388;-81
2022/04/09 10:30:59;;;;;;;22.70;5.95;;;;;;;6.47;67.40;99630.38;5023087;28;20496;-80
2022/04/09 10:33:28;;;;;;;20.75;5.80;;;;;;;6.60;65.96;99628.50;5025188;28;20041;-80
2022/04/09 10:36:02;;;;;;;24.88;5.80;;;;;;;6.47;66.67;99620.66;5026904;28;20052;-80
2022/04/09 10:38:28;;;;;;;;;;;;;;;6.32;64.09;99628.88;5023522;28;20365;-80
2022/04/09 10:40:55;;;;;;;19.33;4.45;;;;;;;6.39;65.99;99632.75;5009049;28;19952;-80
2022/04/09 10:43:22;;;;;;;22.40;5.10;;;;;;;6.34;66.01;99634.88;5031472;28;20069;-81
2022/04/09 10:46:08;;;;;;;22.88;4.93;;;;;;;6.47;63.95;99636.50;5057413;28;20386;-81
2022/04/09 10:48:38;;;;;;;28.48;6.30;;;;;;;6.50;65.33;99630.16;5022531;28;20041;-81
2022/04/09 10:51:15;;;;;;;27.20;7.35;;;;;;;6.40;65.12;99629.16;5007609;28;20412;-80
2022/04/09 10:53:45;;;;;;;17.67;5.28;;;;;;;6.42;65.57;99624.59;5003438;28;20052;-80
2022/04/09 10:56:31;;;;;;;17.55;4.82;;;;;;;6.40;65.64;99629.16;5024314;28;20137;-81
2022/04/09 10:59:12;;;;;;;17.08;4.95;;;;;;;6.36;65.51;99635.59;5004312;28;20077;-81
2022/04/09 11:04:31;;;;;;;19.70;5.55;;;;;;;6.62;62.58;99629.22;5034104;28;20113;-80
2022/04/09 11:07:17;;;;;;;17.42;4.78;;;;;;;6.40;63.96;99627.34;5002378;28;20081;-81
2022/04/09 11:09:48;;;;;;;20.77;6.43;;;;;;;6.53;64.06;99620.19;5016093;28;20049;-81
2022/04/09 11:12:35;;;;;;;25.50;4.97;;;;;;;6.74;61.92;99619.53;5020653;28;20064;-81
2022/04/09 11:15:04;;;;;;;12.90;5.07;;;;;;;6.56;64.04;99613.84;5003521;28;20049;-81
2022/04/09 11:17:33;;;;;;;11.05;3.53;;;;;;;6.64;64.56;99622.03;5005278;28;20049;-81
2022/04/09 11:20:24;;;;;;;17.70;4.18;;;;;;;6.68;63.92;99614.72;4989507;28;20482;-85
2022/04/09 11:22:52;;;;;;;17.15;5.10;;;;;;;6.70;65.05;99618.94;4997514;28;20152;-81
2022/04/09 11:25:21;;;;;;;12.88;3.75;;;;;;;6.78;63.91;99618.34;5008488;28;20038;-81
2022/04/09 11:27:49;;;;;;;23.83;4.68;;;;;;;6.95;63.31;99622.34;5024046;28;20037;-80
2022/04/09 11:30:17;;;;;;;17.60;4.78;;;;;;;7.10;61.85;99620.31;5012490;28;20045;-80
2022/04/09 11:32:47;;;;;;;14.35;4.15;;;;;;;6.85;62.94;99613.44;5014960;28;20390;-80
2022/04/09 11:35:16;;;;;;;11.45;4.20;;;;;;;6.94;63.92;99618.84;5025940;28;20041;-81
2022/04/09 11:37:48;;;;;;;11.88;3.85;;;;;;;7.06;63.58;99598.59;5025607;28;20049;-78
2022/04/09 11:40:16;;;;;;;14.60;3.85;;;;;;;7.07;62.85;99629.31;5013562;28;20033;-82
2022/04/09 11:42:50;;;;;;;8.45;3.15;;;;;;;6.99;63.14;99621.13;5042375;28;20075;-82
2022/04/09 11:45:23;;;;;;;16.50;3.33;;;;;;;7.00;63.56;99614.06;5022418;28;20037;-82
2022/04/09 11:47:58;;;;;;;18.52;3.80;;;;;;;7.04;62.57;99621.63;5021825;28;20050;-83
2022/04/09 11:50:37;;;;;;;15.88;3.67;;;;;;;7.15;62.48;99621.66;5030607;28;20044;-82
2022/04/09 11:53:22;;;;;;;16.20;4.15;;;;;;;7.01;61.01;99627.13;5000700;28;20675;-82
2022/04/09 11:55:58;;;;;;;20.75;4.63;;;;;;;7.10;61.42;99623.81;5040857;28;20124;-83
2022/04/09 11:58:32;;;;;;;17.10;3.90;;;;;;;7.15;61.89;99628.72;5014538;28;20100;-82
2022/04/09 12:00:59;;;;;;;14.77;5.00;;;;;;;7.11;61.90;99630.75;5031795;28;20041;-82
2022/04/09 12:03:26;;;;;;;13.30;3.95;;;;;;;7.30;60.89;99632.81;5036081;28;20047;-82